Time;durP1;ratioP1;P1;durP2;ratioP2;P2;SDS_P1;SDS_P2;PMS_P1;PMS_P2;Temp;Humidity;BMP_temperature;BMP_pressure;BME280_temperature;BME280_humidity;BME280_pressure;Samples;Min_cycle;Max_cycle;Signal;HPM_P1;HPM_P2
2022/12/15 00:41:00;;;;;;;35.03;31.33;;;;;;;0.59;100.00;94432.78;5052448;28;20031;-61
2022/12/15 00:43:27;;;;;;;32.35;27.85;;;;;;;0.67;100.00;94436.47;5054043;28;20024;-61
2022/12/15 00:48:38;;;;;;;27.88;24.70;;;;;;;0.72;100.00;94430.91;5052687;28;20063;-61
2022/12/15 00:51:03;;;;;;;29.65;26.58;;;;;;;0.62;100.00;94432.56;5051061;28;20052;-61
2022/12/15 01:21:04;;;;;;;51.67;31.58;;;;;;;0.36;100.00;94435.28;5049292;28;20572;-57
2022/12/15 01:23:31;;;;;;;50.75;30.52;;;;;;;0.31;100.00;94435.59;5062367;28;20063;-58
2022/12/15 01:25:57;;;;;;;45.25;28.88;;;;;;;0.22;100.00;94439.66;5049834;28;20025;-58
2022/12/15 01:28:23;;;;;;;41.90;29.00;;;;;;;0.17;100.00;94440.91;5049881;28;20028;-57
2022/12/15 01:30:48;;;;;;;51.58;30.48;;;;;;;0.10;100.00;94438.78;5061147;28;20052;-64
2022/12/15 01:35:40;;;;;;;38.83;26.33;;;;;;;0.01;100.00;94438.59;5056741;28;20395;-61
2022/12/15 01:38:05;;;;;;;38.03;24.73;;;;;;;0.01;100.00;94448.94;5056478;28;20032;-61
2022/12/15 01:40:48;;;;;;;37.30;24.10;;;;;;;-0.03;100.00;94449.19;5061315;28;20484;-61
2022/12/15 01:43:14;;;;;;;43.53;26.83;;;;;;;-0.01;100.00;94442.13;5050902;28;20029;-62
2022/12/15 01:45:47;;;;;;;56.13;37.85;;;;;;;0.02;100.00;94445.44;5050100;28;20013;-61
2022/12/15 01:48:19;;;;;;;60.90;41.70;;;;;;;-0.04;100.00;94442.34;5050963;28;20454;-61
2022/12/15 01:51:09;;;;;;;64.82;44.25;;;;;;;-0.08;100.00;94446.09;5032589;28;20132;-58
2022/12/15 01:53:41;;;;;;;82.85;46.80;;;;;;;-0.09;100.00;94435.84;5063222;28;20036;-69
2022/12/15 01:56:08;;;;;;;73.97;46.38;;;;;;;-0.05;100.00;94432.94;5061426;28;20053;-69
2022/12/15 01:58:34;;;;;;;72.57;42.33;;;;;;;-0.04;100.00;94421.66;5050558;28;20398;-69
2022/12/15 02:01:01;;;;;;;62.70;40.38;;;;;;;-0.04;100.00;94419.06;5066864;28;20676;-69
2022/12/15 02:03:27;;;;;;;61.90;39.13;;;;;;;0.01;100.00;94413.56;5057824;28;20083;-70
2022/12/15 02:05:54;;;;;;;75.22;48.03;;;;;;;0.10;100.00;94412.91;5069464;28;20021;-69
2022/12/15 02:08:20;;;;;;;99.15;44.28;;;;;;;0.16;100.00;94421.16;5053838;28;20031;-70
2022/12/15 02:10:53;;;;;;;67.80;43.58;;;;;;;0.17;100.00;94428.81;5060662;28;20900;-62
2022/12/15 02:13:38;;;;;;;71.93;42.25;;;;;;;0.20;100.00;94428.59;5056515;28;20016;-59
2022/12/15 02:16:12;;;;;;;101.27;39.33;;;;;;;0.23;100.00;94437.91;5052183;28;20056;-60
2022/12/15 02:18:49;;;;;;;49.70;30.70;;;;;;;0.37;100.00;94436.91;5049461;28;20028;-59
2022/12/15 02:21:40;;;;;;;115.00;25.13;;;;;;;0.43;100.00;94439.06;5049709;28;20491;-59
2022/12/15 02:24:12;;;;;;;94.30;20.08;;;;;;;0.64;100.00;94436.66;5050398;28;20100;-60
2022/12/15 02:26:40;;;;;;;81.80;24.02;;;;;;;0.55;100.00;94430.41;5055318;28;20024;-59
2022/12/15 02:29:05;;;;;;;115.40;30.60;;;;;;;0.55;100.00;94426.97;5058257;28;20498;-60
2022/12/15 02:31:48;;;;;;;41.33;24.25;;;;;;;0.56;100.00;94432.06;5049355;28;20029;-70
2022/12/15 02:34:40;;;;;;;48.42;20.25;;;;;;;0.57;100.00;94420.75;5057699;28;20509;-68
2022/12/15 02:37:28;;;;;;;104.28;24.40;;;;;;;0.53;100.00;94421.91;5052851;28;20047;-68
2022/12/15 02:39:53;;;;;;;110.43;20.88;;;;;;;0.45;100.00;94421.66;5053242;28;20033;-68
2022/12/15 02:42:19;;;;;;;58.72;20.55;;;;;;;0.47;100.00;94431.91;5053288;28;20040;-69
2022/12/15 02:44:54;;;;;;;24.65;16.35;;;;;;;0.48;100.00;94434.38;5053016;28;20036;-68
2022/12/15 02:47:45;;;;;;;66.22;23.98;;;;;;;0.50;100.00;94432.50;5060403;28;20405;-68
2022/12/15 02:50:31;;;;;;;70.28;20.88;;;;;;;0.49;100.00;94423.06;5054926;28;20082;-61
2022/12/15 02:53:02;;;;;;;41.17;18.15;;;;;;;0.43;100.00;94423.53;5066226;28;20105;-70
2022/12/15 02:55:50;;;;;;;61.58;18.70;;;;;;;0.38;100.00;94425.63;5068284;28;20534;-70
2022/12/15 02:58:21;;;;;;;27.92;14.48;;;;;;;0.33;100.00;94418.19;5060117;28;20529;-70
2022/12/15 03:00:54;;;;;;;30.10;13.65;;;;;;;0.36;100.00;94422.31;5071650;28;20436;-70
2022/12/15 03:03:21;;;;;;;15.68;11.30;;;;;;;0.37;100.00;94423.97;5071925;28;20016;-70
2022/12/15 03:05:53;;;;;;;22.02;13.70;;;;;;;0.25;100.00;94423.91;5072060;28;20016;-70
2022/12/15 03:08:19;;;;;;;16.65;13.15;;;;;;;0.17;100.00;94434.00;5071089;28;20410;-67
2022/12/15 03:10:46;;;;;;;25.58;14.80;;;;;;;0.10;100.00;94427.59;5070593;28;20547;-58
2022/12/15 03:13:13;;;;;;;16.13;13.55;;;;;;;0.04;100.00;94417.69;5071422;28;20028;-58
2022/12/15 03:15:38;;;;;;;17.88;13.80;;;;;;;0.02;100.00;94412.63;5058122;28;20086;-56
2022/12/15 03:18:03;;;;;;;19.83;14.10;;;;;;;-0.01;100.00;94411.06;5067827;28;20545;-58
2022/12/15 03:20:29;;;;;;;14.27;12.77;;;;;;;-0.07;100.00;94416.69;5059392;28;20550;-57
2022/12/15 03:22:54;;;;;;;14.80;13.00;;;;;;;-0.11;100.00;94417.84;5052760;28;20025;-58
2022/12/15 03:25:19;;;;;;;12.88;11.43;;;;;;;-0.12;100.00;94416.16;5052660;28;20100;-58
2022/12/15 03:27:45;;;;;;;14.77;12.60;;;;;;;-0.13;100.00;94411.94;5058911;28;20040;-69
2022/12/15 03:30:11;;;;;;;13.77;12.48;;;;;;;-0.16;100.00;94407.81;5071640;28;20047;-57
2022/12/15 03:32:36;;;;;;;12.88;11.57;;;;;;;-0.16;100.00;94396.63;5070442;28;20016;-58
2022/12/15 03:35:01;;;;;;;12.88;11.57;;;;;;;-0.10;100.00;94390.19;5062177;28;20124;-57
2022/12/15 03:37:27;;;;;;;15.60;13.10;;;;;;;-0.11;100.00;94389.38;5064483;28;20056;-57
2022/12/15 03:39:52;;;;;;;12.38;11.05;;;;;;;-0.14;100.00;94387.00;5064244;28;20035;-57
2022/12/15 03:42:47;;;;;;;12.18;10.80;;;;;;;-0.15;100.00;94382.75;5061098;28;20032;-57
2022/12/15 03:45:03;;;;;;;13.70;11.85;;;;;;;-0.17;100.00;94390.63;5051172;28;20024;-58
2022/12/15 03:47:29;;;;;;;15.70;11.88;;;;;;;-0.21;100.00;94380.59;5051740;28;20099;-57
2022/12/15 03:49:54;;;;;;;16.40;12.65;;;;;;;-0.19;100.00;94382.16;5051839;28;20041;-59
2022/12/15 03:52:19;;;;;;;23.63;14.55;;;;;;;-0.11;100.00;94375.59;5052023;28;20119;-59
2022/12/15 03:54:45;;;;;;;22.48;13.88;;;;;;;-0.07;100.00;94374.44;5062997;28;20054;-59
2022/12/15 03:57:10;;;;;;;16.63;12.45;;;;;;;-0.02;100.00;94362.00;5071125;28;20099;-59
2022/12/15 03:59:36;;;;;;;16.25;11.93;;;;;;;0.01;100.00;94363.56;5070768;28;20402;-59
2022/12/15 04:02:01;;;;;;;22.98;11.00;;;;;;;0.02;100.00;94365.22;5070690;28;20028;-60
2022/12/15 04:04:26;;;;;;;35.03;22.42;;;;;;;0.09;100.00;94363.81;5060998;28;20032;-60
2022/12/15 04:06:51;;;;;;;29.80;16.30;;;;;;;0.11;100.00;94356.75;5056466;28;20048;-62
2022/12/15 04:09:18;;;;;;;21.63;14.57;;;;;;;0.06;100.00;94353.69;5069862;28;20028;-58
2022/12/15 04:11:43;;;;;;;17.52;12.43;;;;;;;0.04;100.00;94358.16;5070048;28;20150;-56
2022/12/15 04:14:09;;;;;;;17.17;12.15;;;;;;;0.06;100.00;94356.28;5057394;28;20100;-58
2022/12/15 04:16:34;;;;;;;31.25;20.40;;;;;;;0.10;100.00;94349.94;5071101;28;20093;-57
2022/12/15 04:21:43;;;;;;;24.00;17.75;;;;;;;0.12;100.00;94338.53;5054974;28;20083;-58
2022/12/15 05:32:32;;;;;;;25.10;18.60;;;;;;;0.17;100.00;94325.28;5063673;28;20039;-61
2022/12/15 05:34:57;;;;;;;27.83;22.00;;;;;;;0.19;100.00;94320.81;5061998;28;20044;-61
2022/12/15 05:37:22;;;;;;;26.35;20.85;;;;;;;0.16;100.00;94322.78;5055463;28;20083;-62
2022/12/15 05:39:48;;;;;;;40.70;37.00;;;;;;;0.19;100.00;94315.63;5061246;28;20154;-61
2022/12/15 05:42:13;;;;;;;38.83;35.10;;;;;;;0.31;100.00;94305.31;5063511;28;20024;-64
2022/12/15 05:44:39;;;;;;;23.45;21.02;;;;;;;0.25;100.00;94286.69;5061437;28;20032;-70
2022/12/15 05:47:05;;;;;;;20.70;18.63;;;;;;;0.16;100.00;94271.88;5061885;28;20775;-58
2022/12/15 05:49:31;;;;;;;23.08;20.75;;;;;;;0.12;100.00;94252.31;5061426;28;20035;-59
2022/12/15 05:51:56;;;;;;;26.02;23.33;;;;;;;0.12;100.00;94242.78;5067823;28;20032;-59
2022/12/15 05:54:22;;;;;;;217.80;121.43;;;;;;;0.12;100.00;94244.56;5063787;28;20036;-58
2022/12/15 05:56:47;;;;;;;56.78;37.70;;;;;;;0.18;100.00;94262.22;5063602;28;20484;-59
2022/12/15 05:59:14;;;;;;;114.70;69.88;;;;;;;0.22;100.00;94279.16;5058084;28;20037;-58
2022/12/15 06:01:39;;;;;;;115.43;73.53;;;;;;;0.23;100.00;94282.59;5067890;28;20501;-70
2022/12/15 06:04:06;;;;;;;70.82;47.92;;;;;;;0.21;100.00;94285.28;5067783;28;20021;-62
2022/12/15 06:06:31;;;;;;;44.55;32.45;;;;;;;0.23;100.00;94283.41;5068670;28;20413;-61
2022/12/15 06:08:57;;;;;;;59.33;40.42;;;;;;;0.28;100.00;94290.84;5058589;28;20036;-61
2022/12/15 06:11:22;;;;;;;47.67;32.97;;;;;;;0.24;100.00;94310.13;5069572;28;20111;-62
2022/12/15 06:13:48;;;;;;;49.47;25.02;;;;;;;0.25;100.00;94312.59;5047141;28;20482;-61
2022/12/15 06:16:19;;;;;;;30.35;23.40;;;;;;;0.26;100.00;94318.59;5067868;28;20017;-61
2022/12/15 06:18:46;;;;;;;36.75;24.67;;;;;;;0.26;100.00;94322.00;5062196;28;20035;-61
2022/12/15 06:21:17;;;;;;;127.22;71.38;;;;;;;0.26;100.00;94314.25;5070013;28;20086;-58
2022/12/15 06:23:44;;;;;;;57.95;40.90;;;;;;;0.34;100.00;94313.69;5071576;28;20029;-69
2022/12/15 06:26:13;;;;;;;69.80;43.67;;;;;;;0.45;100.00;94328.41;5069718;28;20021;-69
2022/12/15 06:28:39;;;;;;;54.78;32.47;;;;;;;0.51;100.00;94312.41;5070556;28;20062;-69
2022/12/15 06:31:06;;;;;;;66.53;41.88;;;;;;;0.47;100.00;94311.00;5068299;28;20674;-69
2022/12/15 06:33:32;;;;;;;47.00;32.70;;;;;;;0.39;100.00;94303.78;5069867;28;20029;-69
2022/12/15 06:36:04;;;;;;;36.88;26.27;;;;;;;0.37;100.00;94302.28;5066731;28;20025;-69
2022/12/15 06:38:30;;;;;;;48.00;32.53;;;;;;;0.39;100.00;94303.00;5067288;28;20039;-68
2022/12/15 06:40:56;;;;;;;117.50;34.20;;;;;;;0.52;100.00;94302.91;5068074;28;20398;-68
2022/12/15 06:43:22;;;;;;;189.00;47.67;;;;;;;0.48;100.00;94307.47;5069155;28;20036;-60
2022/12/15 06:45:48;;;;;;;137.23;40.20;;;;;;;0.47;100.00;94315.38;5063740;28;20021;-60
2022/12/15 06:48:14;;;;;;;108.60;30.48;;;;;;;0.42;100.00;94313.13;5058624;28;20028;-59
2022/12/15 06:50:40;;;;;;;52.90;30.35;;;;;;;0.41;100.00;94311.47;5058894;28;20051;-59
2022/12/15 06:53:05;;;;;;;59.88;26.33;;;;;;;0.45;100.00;94315.47;5061284;28;20020;-60
2022/12/15 06:55:31;;;;;;;93.20;37.70;;;;;;;0.47;100.00;94320.56;5068911;28;21268;-59
2022/12/15 06:57:56;;;;;;;50.80;34.67;;;;;;;0.45;100.00;94332.78;5065611;28;20063;-59
2022/12/15 07:00:22;;;;;;;87.00;53.72;;;;;;;0.46;100.00;94337.03;5063236;28;20097;-67
2022/12/15 07:02:47;;;;;;;70.88;45.22;;;;;;;0.48;100.00;94341.13;5062306;28;20043;-60
2022/12/15 07:05:12;;;;;;;58.33;40.53;;;;;;;0.48;100.00;94335.97;5069210;28;20028;-60
2022/12/15 07:07:38;;;;;;;65.00;45.30;;;;;;;0.48;100.00;94325.59;5059233;28;20107;-59
2022/12/15 07:10:04;;;;;;;55.70;40.42;;;;;;;0.50;100.00;94336.66;5064125;28;20028;-60
2022/12/15 07:12:29;;;;;;;49.70;35.67;;;;;;;0.51;100.00;94340.09;5053935;28;20032;-60
2022/12/15 07:14:55;;;;;;;50.10;34.70;;;;;;;0.52;100.00;94344.34;5064642;28;20036;-60
2022/12/15 07:17:20;;;;;;;60.95;45.00;;;;;;;0.65;100.00;94350.22;5053965;28;20105;-59
2022/12/15 07:19:45;;;;;;;90.63;68.00;;;;;;;0.65;100.00;94344.25;5064161;28;20051;-61
2022/12/15 07:22:11;;;;;;;63.80;51.47;;;;;;;0.65;100.00;94357.19;5055898;28;20150;-67
2022/12/15 07:24:36;;;;;;;41.40;32.75;;;;;;;0.63;100.00;94352.13;5055109;28;20071;-68
2022/12/15 07:27:01;;;;;;;34.80;30.38;;;;;;;0.66;100.00;94346.72;5059064;28;20119;-68
2022/12/15 07:29:27;;;;;;;32.10;28.63;;;;;;;0.66;100.00;94345.91;5064240;28;20028;-68
2022/12/15 07:31:52;;;;;;;68.10;57.20;;;;;;;0.71;100.00;94336.00;5046514;28;20025;-67
2022/12/15 07:34:17;;;;;;;72.13;60.92;;;;;;;0.77;100.00;94321.78;5052571;28;20036;-67
2022/12/15 07:36:43;;;;;;;54.45;44.53;;;;;;;0.84;100.00;94326.38;5060510;28;20032;-67
2022/12/15 07:39:09;;;;;;;67.63;57.17;;;;;;;0.87;100.00;94332.28;5060760;28;20041;-62
2022/12/15 07:41:34;;;;;;;57.60;49.58;;;;;;;0.84;100.00;94334.16;5060767;28;20036;-59
2022/12/15 07:44:01;;;;;;;54.05;45.67;;;;;;;0.84;100.00;94326.38;5054466;28;20036;-59
2022/12/15 07:46:27;;;;;;;49.90;42.85;;;;;;;0.84;100.00;94328.13;5066825;28;20021;-60
2022/12/15 07:48:53;;;;;;;46.22;41.33;;;;;;;0.88;100.00;94326.13;5056637;28;20028;-59
2022/12/15 07:51:21;;;;;;;46.42;41.35;;;;;;;0.91;100.00;94312.94;5059078;28;20522;-59
2022/12/15 07:53:48;;;;;;;46.15;41.13;;;;;;;0.94;100.00;94320.47;5058016;28;20025;-59
2022/12/15 07:56:14;;;;;;;43.85;39.15;;;;;;;0.96;100.00;94316.84;5063119;28;20399;-59
2022/12/15 07:58:39;;;;;;;81.43;64.30;;;;;;;0.98;100.00;94321.91;5068225;28;20035;-60
2022/12/15 08:01:07;;;;;;;61.63;52.55;;;;;;;1.04;100.00;94315.44;5066734;28;20092;-59
2022/12/15 08:03:33;;;;;;;53.67;46.13;;;;;;;1.03;100.00;94301.66;5064874;28;20081;-59
2022/12/15 08:06:10;;;;;;;49.58;39.53;;;;;;;1.03;100.00;94301.66;5065534;28;20043;-59
2022/12/15 08:08:35;;;;;;;42.25;37.72;;;;;;;1.07;100.00;94305.66;5063232;28;20453;-59
2022/12/15 08:11:09;;;;;;;71.90;54.83;;;;;;;1.09;100.00;94302.94;5068801;28;20038;-59
2022/12/15 08:13:35;;;;;;;63.20;52.47;;;;;;;1.15;100.00;94294.69;5061778;28;20031;-62
2022/12/15 08:16:00;;;;;;;62.67;52.30;;;;;;;1.16;100.00;94287.72;5052027;28;20032;-59
2022/12/15 08:18:27;;;;;;;123.35;93.32;;;;;;;1.18;100.00;94284.09;5068992;28;20025;-59
2022/12/15 08:20:52;;;;;;;129.93;103.60;;;;;;;1.20;100.00;94276.16;5067428;28;20032;-61
2022/12/15 08:23:18;;;;;;;150.15;111.32;;;;;;;1.23;100.00;94276.78;5060212;28;20508;-61
2022/12/15 08:25:43;;;;;;;117.80;89.38;;;;;;;1.27;100.00;94282.56;5070293;28;20036;-61
2022/12/15 08:28:08;;;;;;;89.28;65.38;;;;;;;1.32;100.00;94280.41;5061405;28;20055;-62
2022/12/15 08:30:35;;;;;;;90.95;68.85;;;;;;;1.35;100.00;94285.34;5057960;28;20032;-62
2022/12/15 08:33:01;;;;;;;91.50;70.90;;;;;;;1.37;100.00;94293.84;5061196;28;20093;-61
2022/12/15 08:35:27;;;;;;;61.05;49.88;;;;;;;1.46;100.00;94286.31;5065800;28;20059;-55
2022/12/15 08:37:52;;;;;;;52.25;34.35;;;;;;;1.64;100.00;94269.25;5069132;28;20028;-60
2022/12/15 08:40:17;;;;;;;41.22;31.00;;;;;;;1.63;100.00;94277.97;5064964;28;20106;-59
2022/12/15 08:42:43;;;;;;;42.05;34.28;;;;;;;1.70;100.00;94268.78;5066535;28;20033;-59
2022/12/15 08:45:10;;;;;;;43.65;37.38;;;;;;;1.78;100.00;94270.78;5064214;28;20024;-59
2022/12/15 08:47:35;;;;;;;50.92;36.10;;;;;;;1.81;100.00;94267.94;5068688;28;20016;-59
2022/12/15 08:50:01;;;;;;;44.70;36.67;;;;;;;1.76;100.00;94271.81;5066407;28;20108;-59
2022/12/15 08:52:26;;;;;;;41.33;33.83;;;;;;;1.72;100.00;94271.25;5067086;28;20033;-59
2022/12/15 08:54:52;;;;;;;42.92;35.08;;;;;;;1.67;100.00;94270.78;5066334;28;20036;-62
2022/12/15 08:57:17;;;;;;;41.80;32.30;;;;;;;1.63;100.00;94277.97;5065644;28;20025;-62
2022/12/15 08:59:43;;;;;;;40.20;35.83;;;;;;;1.64;100.00;94277.03;5059819;28;20035;-67
2022/12/15 09:02:11;;;;;;;43.85;35.55;;;;;;;1.68;100.00;94270.69;5065314;28;20099;-67
2022/12/15 09:04:36;;;;;;;36.72;31.00;;;;;;;1.76;100.00;94271.81;5067477;28;20016;-68
2022/12/15 09:07:02;;;;;;;36.28;32.47;;;;;;;1.80;100.00;94266.28;5067312;28;20024;-67
2022/12/15 09:09:28;;;;;;;38.92;34.88;;;;;;;1.79;100.00;94263.78;5061569;28;20099;-67
2022/12/15 09:11:53;;;;;;;32.95;29.45;;;;;;;1.84;100.00;94266.84;5069965;28;20104;-67
2022/12/15 09:14:19;;;;;;;30.13;26.83;;;;;;;1.88;100.00;94265.66;5062731;28;20167;-55
2022/12/15 09:16:44;;;;;;;31.23;28.02;;;;;;;1.90;100.00;94275.91;5060678;28;20032;-59
2022/12/15 09:19:10;;;;;;;28.40;24.50;;;;;;;1.92;100.00;94274.84;5049730;28;20024;-67
2022/12/15 09:21:35;;;;;;;25.63;23.10;;;;;;;2.14;100.00;94286.09;5055253;28;20029;-69
2022/12/15 09:24:02;;;;;;;24.75;22.20;;;;;;;2.09;100.00;94298.59;5061027;28;20050;-68
2022/12/15 09:26:30;;;;;;;25.77;23.17;;;;;;;2.11;100.00;94305.31;5061265;28;20108;-68
2022/12/15 09:28:56;;;;;;;36.33;29.80;;;;;;;2.18;100.00;94310.84;5063116;28;20024;-68
2022/12/15 09:31:21;;;;;;;41.92;33.63;;;;;;;2.22;100.00;94312.25;5054444;28;20410;-67
2022/12/15 09:33:48;;;;;;;45.90;33.25;;;;;;;2.26;100.00;94318.03;5061929;28;20048;-56
2022/12/15 09:36:14;;;;;;;34.88;27.55;;;;;;;2.33;100.00;94305.38;5068134;28;20032;-59
2022/12/15 09:38:41;;;;;;;33.72;27.67;;;;;;;2.40;100.00;94298.72;5064584;28;20047;-62
2022/12/15 09:41:12;;;;;;;42.63;32.75;;;;;;;2.54;100.00;94290.59;5048373;28;20036;-63
2022/12/15 09:43:50;;;;;;;35.80;31.65;;;;;;;2.64;100.00;94276.84;5062834;28;20028;-63
2022/12/15 09:46:26;;;;;;;31.77;26.15;;;;;;;2.69;100.00;94264.28;5059888;28;20127;-62
2022/12/15 09:48:54;;;;;;;25.02;22.52;;;;;;;2.73;100.00;94252.66;5061314;28;20494;-62
2022/12/15 09:51:31;;;;;;;26.20;20.40;;;;;;;2.89;100.00;94243.56;5065180;28;20028;-62
2022/12/15 09:53:57;;;;;;;26.13;22.02;;;;;;;2.85;100.00;94224.81;5066096;28;20158;-60
2022/12/15 09:56:35;;;;;;;25.88;21.70;;;;;;;2.79;100.00;94220.13;5062994;28;20111;-62
2022/12/15 09:59:04;;;;;;;26.88;23.98;;;;;;;2.80;100.00;94208.78;5065633;28;20024;-61
2022/12/15 10:01:53;;;;;;;21.88;19.75;;;;;;;2.82;100.00;94201.69;5063852;28;20508;-61
2022/12/15 10:05:12;;;;;;;17.60;15.85;;;;;;;2.96;100.00;94185.72;5051188;28;20170;-62
2022/12/15 10:07:45;;;;;;;16.95;14.05;;;;;;;3.13;100.00;94181.66;5039748;28;20036;-62
2022/12/15 10:10:26;;;;;;;16.38;14.68;;;;;;;3.23;100.00;94173.06;5067685;28;20402;-61
2022/12/15 10:12:55;;;;;;;16.67;15.02;;;;;;;3.25;100.00;94182.38;5064883;28;20017;-58
2022/12/15 10:15:27;;;;;;;20.30;18.30;;;;;;;3.33;100.00;94173.09;5065092;28;20036;-55
2022/12/15 10:18:04;;;;;;;30.88;26.42;;;;;;;3.35;100.00;94174.56;5062092;28;20028;-56
2022/12/15 10:20:31;;;;;;;27.50;23.58;;;;;;;3.34;100.00;94165.13;5065933;28;20024;-58
2022/12/15 10:23:04;;;;;;;25.98;22.58;;;;;;;3.41;100.00;94150.63;5066348;28;20025;-57
2022/12/15 10:25:30;;;;;;;27.77;24.85;;;;;;;3.39;100.00;94141.31;5066389;28;20020;-57
2022/12/15 10:28:14;;;;;;;37.10;28.50;;;;;;;3.20;100.00;94135.13;5064941;28;20024;-56
2022/12/15 10:30:44;;;;;;;58.13;46.17;;;;;;;3.08;100.00;94126.63;5052100;28;20719;-61
2022/12/15 10:33:18;;;;;;;50.17;43.20;;;;;;;3.07;100.00;94124.16;5050974;28;20029;-68
2022/12/15 10:35:45;;;;;;;31.83;28.45;;;;;;;3.11;100.00;94120.34;5050471;28;20033;-59
2022/12/15 10:38:23;;;;;;;22.17;19.80;;;;;;;3.23;100.00;94108.84;5050280;28;20029;-60
2022/12/15 10:40:52;;;;;;;18.65;16.73;;;;;;;3.34;100.00;94107.91;5057507;28;20025;-59
2022/12/15 10:43:27;;;;;;;22.80;20.50;;;;;;;3.32;100.00;94094.22;5049118;28;20055;-59
2022/12/15 10:46:12;;;;;;;32.45;29.23;;;;;;;3.33;100.00;94082.84;5064618;28;20028;-59
2022/12/15 10:48:38;;;;;;;35.60;31.80;;;;;;;3.33;100.00;94079.44;5065842;28;20146;-59
2022/12/15 10:51:16;;;;;;;25.60;23.00;;;;;;;3.33;100.00;94082.84;5065173;28;20124;-59
2022/12/15 10:53:48;;;;;;;24.38;22.02;;;;;;;3.39;100.00;94069.28;5065704;28;21302;-62
2022/12/15 10:56:28;;;;;;;35.90;30.75;;;;;;;3.44;100.00;94064.50;5067655;28;20021;-62
2022/12/15 10:58:56;;;;;;;29.83;26.73;;;;;;;3.50;100.00;94063.09;5066607;28;20445;-62
2022/12/15 11:01:27;;;;;;;55.65;45.33;;;;;;;3.50;100.00;94059.69;5071257;28;20017;-62
2022/12/15 11:03:54;;;;;;;50.75;43.78;;;;;;;3.46;100.00;94060.94;5069025;28;20025;-60
2022/12/15 11:06:30;;;;;;;41.38;37.00;;;;;;;3.49;100.00;94055.47;5069656;28;20028;-61
2022/12/15 11:09:06;;;;;;;39.85;33.28;;;;;;;3.51;100.00;94056.13;5069235;28;20115;-61
2022/12/15 11:14:22;;;;;;;25.42;22.83;;;;;;;3.53;100.00;94038.59;5062267;28;20059;-68
2022/12/15 11:16:58;;;;;;;26.05;23.48;;;;;;;3.54;100.00;94050.66;5069331;28;20111;-69
2022/12/15 11:19:52;;;;;;;;;;;;;;;3.56;100.00;94038.31;5066853;28;20460;-68
2022/12/15 11:22:21;;;;;;;29.65;26.88;;;;;;;3.55;100.00;94049.69;5058908;28;19920;-67
2022/12/15 11:25:17;;;;;;;27.33;24.45;;;;;;;3.56;100.00;94059.97;5068442;28;20108;-68
2022/12/15 11:27:44;;;;;;;33.45;29.92;;;;;;;3.49;100.00;94056.25;5035369;28;20407;-69
2022/12/15 11:30:21;;;;;;;33.65;30.23;;;;;;;3.48;100.00;94056.41;5069118;28;20035;-61
2022/12/15 11:32:57;;;;;;;32.75;29.38;;;;;;;3.45;100.00;94060.09;5064192;28;20460;-61
2022/12/15 11:35:43;;;;;;;32.30;29.25;;;;;;;3.40;100.00;94070.91;5066262;28;20130;-61
2022/12/15 11:38:44;;;;;;;;;;;;;;;3.41;100.00;94061.34;5069078;28;20055;-61
2022/12/15 11:41:24;;;;;;;29.48;26.55;;;;;;;3.41;100.00;94069.97;5009801;28;19917;-61
2022/12/15 11:44:07;;;;;;;31.75;27.00;;;;;;;3.39;100.00;94071.88;5060341;28;20033;-61
2022/12/15 11:46:41;;;;;;;30.48;27.45;;;;;;;3.34;100.00;94076.69;5067853;28;20038;-62
2022/12/15 11:49:25;;;;;;;31.07;27.87;;;;;;;3.33;100.00;94066.44;5067861;28;20044;-68
2022/12/15 11:52:06;;;;;;;32.08;28.77;;;;;;;3.32;100.00;94067.38;5063935;28;20032;-61
2022/12/15 11:54:49;;;;;;;100.82;70.05;;;;;;;3.30;100.00;94060.50;5063005;28;20032;-61
2022/12/15 11:57:32;;;;;;;85.68;62.55;;;;;;;3.32;100.00;94057.78;5069466;28;20150;-61
2022/12/15 12:00:05;;;;;;;36.38;32.45;;;;;;;3.29;100.00;94055.47;5068639;28;20059;-61
2022/12/15 12:02:56;;;;;;;31.38;28.08;;;;;;;3.28;100.00;94039.03;5066709;28;20059;-62
2022/12/15 12:05:34;;;;;;;30.40;27.00;;;;;;;3.29;100.00;94034.66;5068007;28;20021;-62
2022/12/15 12:08:14;;;;;;;64.25;52.05;;;;;;;3.30;100.00;94038.91;5067948;28;20522;-67
2022/12/15 12:10:49;;;;;;;50.35;44.72;;;;;;;3.35;100.00;94035.91;5068281;28;20036;-58
2022/12/15 12:13:30;;;;;;;45.20;40.50;;;;;;;3.30;100.00;94028.50;5067206;28;20048;-61
2022/12/15 12:16:25;;;;;;;47.83;39.13;;;;;;;3.28;100.00;94041.63;5065639;28;20031;-57
2022/12/15 12:18:58;;;;;;;42.97;37.83;;;;;;;3.28;100.00;94040.81;5067687;28;20115;-58
2022/12/15 12:21:32;;;;;;;52.70;47.13;;;;;;;3.37;100.00;94033.97;5066278;28;20051;-57
2022/12/15 12:24:10;;;;;;;56.72;50.42;;;;;;;3.29;100.00;94011.25;5063860;28;20023;-58
2022/12/15 12:26:48;;;;;;;121.00;93.35;;;;;;;3.26;100.00;93995.91;5061347;28;20033;-64
2022/12/15 12:29:42;;;;;;;157.18;95.88;;;;;;;3.23;100.00;94006.59;5061391;28;20045;-58
2022/12/15 12:32:43;;;;;;;51.42;38.20;;;;;;;3.24;100.00;94018.66;5066790;28;20059;-60
2022/12/15 12:35:57;;;;;;;44.38;36.15;;;;;;;3.21;100.00;94019.72;5022153;28;20519;-60
2022/12/15 12:38:32;;;;;;;31.40;28.15;;;;;;;3.21;100.00;94017.13;5040370;28;20044;-60
2022/12/15 12:41:07;;;;;;;35.05;28.67;;;;;;;3.20;100.00;94023.28;5068429;28;20028;-61
2022/12/15 12:43:38;;;;;;;31.48;26.50;;;;;;;3.21;100.00;94021.53;5064798;28;20032;-60
2022/12/15 12:46:21;;;;;;;48.72;42.10;;;;;;;3.22;100.00;94010.16;5061111;28;20021;-58
2022/12/15 12:48:56;;;;;;;36.42;32.67;;;;;;;3.24;100.00;94018.66;5066210;28;20047;-64
2022/12/15 12:51:23;;;;;;;35.15;31.55;;;;;;;3.24;100.00;94013.44;5066172;28;20477;-60
2022/12/15 12:53:49;;;;;;;65.05;45.92;;;;;;;3.25;100.00;93995.09;5065718;28;20028;-60
2022/12/15 12:56:31;;;;;;;60.38;44.70;;;;;;;3.25;100.00;93983.88;5066884;28;20465;-60
2022/12/15 12:58:56;;;;;;;46.53;37.10;;;;;;;3.24;100.00;93982.25;5067409;28;20415;-59
2022/12/15 13:01:30;;;;;;;36.70;32.50;;;;;;;3.25;100.00;93979.47;5067406;28;20029;-59
2022/12/15 13:04:32;;;;;;;64.28;53.22;;;;;;;3.25;100.00;93979.47;5066754;28;20509;-60
2022/12/15 13:07:05;;;;;;;60.95;50.92;;;;;;;3.25;100.00;93983.88;5065847;28;20016;-66
2022/12/15 13:09:39;;;;;;;42.40;36.08;;;;;;;3.22;100.00;93991.97;5065100;28;20709;-60
2022/12/15 13:12:35;;;;;;;35.70;31.92;;;;;;;3.22;100.00;93989.38;5067648;28;20024;-59
2022/12/15 13:15:14;;;;;;;33.13;29.73;;;;;;;3.19;100.00;93998.25;5061107;28;20028;-59
2022/12/15 13:17:47;;;;;;;32.13;28.73;;;;;;;3.17;100.00;94001.94;5063352;28;20415;-59
2022/12/15 13:20:28;;;;;;;35.72;30.88;;;;;;;3.17;100.00;93994.13;5066952;28;20033;-60
2022/12/15 13:22:55;;;;;;;46.83;41.70;;;;;;;3.13;100.00;93986.63;5061748;28;20489;-60
2022/12/15 13:25:36;;;;;;;33.22;29.83;;;;;;;3.12;100.00;93990.16;5067560;28;20070;-63
2022/12/15 13:28:33;;;;;;;35.08;31.25;;;;;;;3.12;100.00;93995.38;5067737;28;20094;-58
2022/12/15 13:31:19;;;;;;;29.80;26.75;;;;;;;3.11;100.00;93980.72;5065509;28;20517;-59
2022/12/15 13:33:48;;;;;;;29.95;26.75;;;;;;;3.12;100.00;93984.16;5064648;28;20051;-59
2022/12/15 13:36:40;;;;;;;30.13;26.23;;;;;;;3.10;100.00;93992.09;5064196;28;20039;-59
2022/12/15 13:39:13;;;;;;;31.45;28.08;;;;;;;3.08;100.00;93981.00;5066820;28;20510;-59
2022/12/15 13:41:47;;;;;;;32.85;29.45;;;;;;;3.07;100.00;93976.78;5065004;28;20035;-59
2022/12/15 13:44:50;;;;;;;29.40;26.42;;;;;;;3.07;100.00;93984.56;5064078;28;20036;-66
2022/12/15 13:47:24;;;;;;;32.63;29.33;;;;;;;3.06;100.00;93982.94;5066833;28;20032;-57
2022/12/15 13:50:14;;;;;;;33.08;29.60;;;;;;;3.05;100.00;93970.06;5066039;28;20029;-57
2022/12/15 13:52:48;;;;;;;31.67;27.63;;;;;;;3.05;100.00;93976.09;5066578;28;20033;-58
2022/12/15 13:55:23;;;;;;;31.55;28.15;;;;;;;3.04;100.00;93973.63;5068301;28;20123;-55
2022/12/15 13:58:00;;;;;;;30.65;27.35;;;;;;;3.03;100.00;93966.78;5066299;28;20024;-58
2022/12/15 14:00:25;;;;;;;32.78;29.27;;;;;;;3.03;100.00;93964.19;5062951;28;20104;-58
2022/12/15 14:03:05;;;;;;;33.03;29.65;;;;;;;3.04;100.00;93945.03;5064543;28;20115;-59